Pagrindinis puslapis
METAR-TAF:

METAR-TAF

Oro uostai :

Sainte-Marie, Madagaskaras

platuma: 17-05S, ilguma: 049-49E, Aukštis: 2 m

Dabartinis oras

Ataskaita buvo paskelbta 1 valandą ir 47 minutes, ne 12:00 UTC
Vėjas 6 kt iš Rytų
Temperatūra 31°C
Drėgmė 71%
Slėgis 1011 hPa
Matomumas 10 km arba daugiau
Mažai debesys ne aukštis 1700 ft

METAR: FMMS 201200Z 08006KT 9999 FEW017 31/25 Q1011

Laikas: 16:47 (13:47 UTC)

Prognozė

Ataskaita buvo paskelbta 2 valandos ir 47 minutes, ne 11:00 UTC
Prognozė galioja nuo 20 metu 12 UTC su 21 metu 12 UTC
Vėjas 10 kt iš Rytų
Matomumas 10 km arba daugiau
Su prošvaistėmis ne aukštis 1700 ft
Tikimybė 40% :
Laikinai
nuo 21 metu 00 UTC su 21 metu 09 UTC
Matomumas: 4500 m
lietus

TAF: FMMS 201100Z 2012/2112 08010KT 9999 BKN017 PROB40 TEMPO 2100/2109 4500 RA

Orai ataskaitas ir orų prognozės (METAR, TAF).

turimą stotys yra geltonos ir raudonos taškus žemėlapyje.

Perkelti pele per norėdami pamatyti stoties vardą.

Tada spustelėkite, norėdami matyti oro stebėjimo ir prognozės.

Norėdami pakeisti žemėlapį: spustelėkite ant žalios mygtukų su juodo kryžiaus žemyn,; žalią mygtuką su brūkšneliu, jei norite nutolinti; arba žalių rodyklių gretimoms žemėlapius.


METAR-TAF: